createdAt,value
2018-01-05T07:30:03.647Z,98473.22
2018-01-05T07:32:29.426Z,98476.16
2018-01-05T07:34:55.200Z,98472.30
2018-01-05T07:37:20.976Z,98457.34
2018-01-05T07:39:46.746Z,98493.41
2018-01-05T07:42:12.844Z,98483.22
2018-01-05T07:44:38.639Z,98486.21
2018-01-05T07:47:04.422Z,98490.27
2018-01-05T07:49:30.222Z,98455.11
2018-01-05T07:51:55.986Z,98484.32
2018-01-05T07:54:21.766Z,98496.23
2018-01-05T07:56:47.575Z,98503.47
2018-01-05T07:59:13.352Z,98495.81
2018-01-05T08:01:39.175Z,98511.72
2018-01-05T08:04:05.403Z,98525.36
2018-01-05T08:06:31.188Z,98520.54
2018-01-05T08:08:56.974Z,98518.39
2018-01-05T08:11:22.922Z,98540.73
2018-01-05T08:13:48.716Z,98531.70
2018-01-05T08:16:14.531Z,98549.65
2018-01-05T08:18:40.319Z,98542.08
2018-01-05T08:21:06.120Z,98546.80
2018-01-05T08:23:39.006Z,98543.62
2018-01-05T08:26:06.255Z,98538.72
2018-01-05T08:28:32.046Z,98572.44
2018-01-05T08:30:57.814Z,98576.98
2018-01-05T08:33:23.608Z,98561.73
2018-01-05T08:35:49.381Z,98568.55
2018-01-05T08:38:15.214Z,98593.00
2018-01-05T08:40:41.037Z,98589.37
2018-01-05T08:43:06.823Z,98595.36
2018-01-05T08:45:32.611Z,98600.70
2018-01-05T08:47:58.406Z,98589.56
2018-01-05T08:50:24.187Z,98607.85
2018-01-05T08:52:50.015Z,98603.84
2018-01-05T08:55:15.819Z,98621.28
2018-01-05T08:57:41.608Z,98628.88
2018-01-05T09:00:07.441Z,98626.42
2018-01-05T09:02:33.247Z,98618.22
2018-01-05T09:04:59.039Z,98645.20
2018-01-05T09:07:24.841Z,98634.24
2018-01-05T09:09:50.634Z,98647.64
2018-01-05T09:12:16.425Z,98647.81
2018-01-05T09:14:42.243Z,98639.77
2018-01-05T09:17:08.031Z,98647.52
2018-01-05T09:19:33.806Z,98665.67
2018-01-05T09:21:59.610Z,98690.66
2018-01-05T09:24:25.394Z,98665.55
2018-01-05T09:26:51.181Z,98687.08
2018-01-05T09:29:16.985Z,98671.83
2018-01-05T09:31:42.762Z,98695.25
2018-01-05T09:34:08.542Z,98709.11
2018-01-05T09:36:34.370Z,98711.90
2018-01-05T09:39:00.160Z,98717.80
2018-01-05T09:41:25.942Z,98702.58
2018-01-05T09:43:51.911Z,98711.06
2018-01-05T09:46:17.733Z,98718.41
2018-01-05T09:48:43.510Z,98715.06
2018-01-05T09:51:09.348Z,98710.48
2018-01-05T09:53:35.125Z,98734.62
2018-01-05T09:56:00.895Z,98743.91
2018-01-05T09:58:26.706Z,98753.19
2018-01-05T10:00:52.504Z,98757.66
2018-01-05T10:03:18.302Z,98758.50
2018-01-05T10:05:44.115Z,98782.80
2018-01-05T10:08:09.907Z,98759.72
2018-01-05T10:10:35.679Z,98768.50
2018-01-05T10:13:01.499Z,98788.14
2018-01-05T10:15:27.278Z,98782.66
2018-01-05T10:17:53.067Z,98800.16
2018-01-05T10:20:19.190Z,98800.60
2018-01-05T10:22:44.974Z,98810.44
2018-01-05T10:25:10.766Z,98830.91
2018-01-05T10:27:36.617Z,98826.67
2018-01-05T10:30:02.419Z,98831.93
2018-01-05T10:32:28.188Z,98834.78
2018-01-05T10:34:53.979Z,98842.20
2018-01-05T10:37:19.742Z,98856.78
2018-01-05T10:39:45.513Z,98850.10
2018-01-05T10:42:11.314Z,98866.34
2018-01-05T10:44:37.122Z,98871.69
2018-01-05T10:47:02.894Z,98871.64
2018-01-05T10:49:28.721Z,98871.38
2018-01-05T10:51:54.503Z,98874.31
2018-01-05T10:54:20.286Z,98887.36
2018-01-05T10:56:46.091Z,98884.68
2018-01-05T10:59:11.874Z,98893.58
2018-01-05T11:01:37.650Z,98898.96
2018-01-05T11:04:03.457Z,98895.63
2018-01-05T11:06:29.240Z,98888.64
2018-01-05T11:08:55.032Z,98899.97
2018-01-05T11:11:20.854Z,98900.85
2018-01-05T11:13:46.634Z,98910.20
2018-01-05T11:16:12.422Z,98910.65
2018-01-05T11:18:38.235Z,98912.94
2018-01-05T11:21:04.019Z,98909.77
2018-01-05T11:23:29.795Z,98915.39
2018-01-05T11:25:55.597Z,98913.13
2018-01-05T11:28:21.388Z,98913.84
2018-01-05T11:30:47.157Z,98920.25
2018-01-05T11:33:12.964Z,98925.06
2018-01-05T11:35:38.752Z,98927.42
2018-01-05T11:38:04.542Z,98936.48
2018-01-05T11:40:30.346Z,98937.51
2018-01-05T11:42:56.128Z,98945.83
2018-01-05T11:45:21.919Z,98942.45
2018-01-05T11:47:47.727Z,98950.83
2018-01-05T11:50:13.504Z,98947.51
2018-01-05T11:52:39.275Z,98958.09
2018-01-05T11:55:05.044Z,98957.81
2018-01-05T11:57:31.205Z,98962.22
2018-01-05T11:59:56.992Z,98960.23
2018-01-05T12:02:22.770Z,98964.84
2018-01-05T12:04:48.570Z,98971.47
2018-01-05T12:07:14.351Z,98966.80
2018-01-05T12:09:40.142Z,98973.52
2018-01-05T12:12:05.942Z,98982.88
2018-01-05T12:14:31.727Z,98988.21
2018-01-05T12:16:57.502Z,98980.72
2018-01-05T12:19:30.224Z,98991.21
2018-01-05T12:21:56.009Z,98990.75
2018-01-05T12:24:21.794Z,98992.70
2018-01-05T12:26:47.784Z,98993.88
2018-01-05T12:29:13.601Z,98998.52
2018-01-05T12:31:39.379Z,99004.91
2018-01-05T12:34:05.183Z,99009.56
2018-01-05T12:36:30.971Z,99015.77
2018-01-05T12:38:56.755Z,99005.67
2018-01-05T12:41:22.559Z,99010.92
2018-01-05T12:43:48.598Z,99015.64
2018-01-05T12:46:14.391Z,99018.83
2018-01-05T12:48:40.208Z,99017.30
2018-01-05T12:51:05.978Z,99028.23
2018-01-05T12:53:31.768Z,99029.25
2018-01-05T12:55:57.818Z,99032.55
2018-01-05T12:58:23.611Z,99039.02
2018-01-05T13:00:49.386Z,99037.54
2018-01-05T13:03:15.264Z,99032.70
2018-01-05T13:05:41.072Z,99037.91
2018-01-05T13:08:06.885Z,99042.81
2018-01-05T13:10:32.663Z,99039.05
2018-01-05T13:12:58.698Z,99040.83
2018-01-05T13:15:24.485Z,99035.42
2018-01-05T13:17:50.684Z,99033.86
2018-01-05T13:20:16.544Z,99033.78
2018-01-05T13:22:43.142Z,99042.70
2018-01-05T13:25:17.016Z,99048.81
2018-01-05T13:27:43.686Z,99049.35
2018-01-05T13:30:17.495Z,99054.65
2018-01-05T13:32:44.436Z,99056.78
2018-01-05T13:35:10.383Z,99060.97
2018-01-05T13:37:36.193Z,99065.48
2018-01-05T13:40:02.420Z,99067.67
2018-01-05T13:42:28.223Z,99072.56
2018-01-05T13:44:54.345Z,99069.90
2018-01-05T13:47:20.472Z,99069.11
2018-01-05T13:49:46.367Z,99077.00
2018-01-05T13:52:12.195Z,99071.95
2018-01-05T13:54:38.135Z,99070.73
2018-01-05T13:57:04.161Z,99077.87
2018-01-05T13:59:36.819Z,99079.77
2018-01-05T14:02:02.759Z,99082.32
2018-01-05T14:04:28.559Z,99092.28
2018-01-05T14:06:54.354Z,99092.17
2018-01-05T14:09:20.138Z,99092.81
2018-01-05T14:11:46.756Z,99102.59
2018-01-05T14:14:12.971Z,99104.97
2018-01-05T14:16:38.760Z,99109.13
2018-01-05T14:19:04.551Z,99107.95
2018-01-05T14:21:30.364Z,99115.53
2018-01-05T14:23:56.158Z,99117.13
2018-01-05T14:26:21.995Z,99114.13
2018-01-05T14:28:47.799Z,99122.56
2018-01-05T14:31:13.599Z,99131.30
2018-01-05T14:33:39.417Z,99135.97
2018-01-05T14:36:05.498Z,99130.56
2018-01-05T14:38:31.331Z,99135.08
2018-01-05T14:40:57.282Z,99138.84
2018-01-05T14:43:23.117Z,99134.26
2018-01-05T14:45:49.504Z,99145.84
2018-01-05T14:48:15.298Z,99142.26
2018-01-05T14:50:41.430Z,99145.21
2018-01-05T14:53:07.266Z,99152.32
2018-01-05T14:55:33.047Z,99151.00
2018-01-05T14:57:59.235Z,99155.87
2018-01-05T15:00:25.035Z,99150.30
2018-01-05T15:02:50.820Z,99143.22
2018-01-05T15:05:16.758Z,99144.21
2018-01-05T15:07:42.571Z,99144.46
2018-01-05T15:10:08.338Z,99148.91
2018-01-05T15:12:34.156Z,99152.28
2018-01-05T15:14:59.938Z,99155.48
2018-01-05T15:17:25.719Z,99152.86
2018-01-05T15:19:51.515Z,99165.09
2018-01-05T15:22:17.307Z,99165.05
2018-01-05T15:24:43.121Z,99167.50
2018-01-05T15:27:08.894Z,99176.09
2018-01-05T15:29:34.698Z,99178.13
2018-01-05T15:32:00.494Z,99180.13
2018-01-05T15:34:26.290Z,99175.02
2018-01-05T15:36:52.329Z,99186.64
2018-01-05T15:39:18.148Z,99187.48
2018-01-05T15:41:43.935Z,99185.66
2018-01-05T15:44:09.908Z,99182.17
2018-01-05T15:46:35.725Z,99192.34
2018-01-05T15:49:01.543Z,99189.36
2018-01-05T15:51:27.355Z,99194.57
2018-01-05T15:53:53.143Z,99198.77
2018-01-05T15:56:18.925Z,99202.38
2018-01-05T15:58:44.720Z,99211.72
2018-01-05T16:01:10.819Z,99222.03
2018-01-05T16:03:36.634Z,99228.94
2018-01-05T16:06:02.447Z,99224.34
2018-01-05T16:08:28.247Z,99219.80
2018-01-05T16:10:54.022Z,99226.45
2018-01-05T16:13:19.819Z,99230.86
2018-01-05T16:15:45.632Z,99226.63
2018-01-05T16:18:11.451Z,99231.37
2018-01-05T16:20:37.253Z,99230.37
2018-01-05T16:23:03.050Z,99246.83
2018-01-05T16:25:28.852Z,99241.80
2018-01-05T16:27:54.656Z,99255.28
2018-01-05T16:30:20.447Z,99256.26
2018-01-05T16:32:46.239Z,99257.34
2018-01-05T16:35:12.167Z,99246.61
2018-01-05T16:37:37.966Z,99246.37
2018-01-05T16:40:03.818Z,99250.56
2018-01-05T16:42:29.634Z,99254.19
2018-01-05T16:44:55.408Z,99250.49
2018-01-05T16:47:21.266Z,99256.05
2018-01-05T16:49:47.060Z,99257.56
2018-01-05T16:52:12.970Z,99260.60
2018-01-05T16:54:38.763Z,99261.84
2018-01-05T16:57:04.844Z,99259.91
2018-01-05T16:59:30.623Z,99259.17
2018-01-05T17:01:56.414Z,99262.31
2018-01-05T17:04:22.307Z,99260.92
2018-01-05T17:06:48.092Z,99266.32
2018-01-05T17:09:33.432Z,99268.38
2018-01-05T17:11:59.553Z,99277.63
2018-01-05T17:14:25.407Z,99274.17
2018-01-05T17:19:23.232Z,99291.59
2018-01-05T17:21:49.128Z,99293.99
2018-01-05T17:24:14.970Z,99304.84
2018-01-05T17:26:40.967Z,99305.27
2018-01-05T17:29:06.811Z,99303.36
2018-01-05T17:31:33.111Z,99317.23
2018-01-05T17:33:58.910Z,99313.30
2018-01-05T17:36:24.978Z,99319.52
2018-01-05T17:38:50.834Z,99325.50
2018-01-05T17:41:16.618Z,99324.80
2018-01-05T17:43:42.390Z,99331.52
2018-01-05T17:46:08.206Z,99328.88
2018-01-05T17:48:34.018Z,99334.16
2018-01-05T17:50:59.801Z,99331.02
2018-01-05T17:53:25.819Z,99337.74
2018-01-05T17:55:51.601Z,99342.83
2018-01-05T17:58:24.255Z,99343.72
2018-01-05T18:00:50.268Z,99347.30
2018-01-05T18:03:16.059Z,99345.67
2018-01-05T18:05:41.839Z,99340.93
2018-01-05T18:08:08.808Z,99342.24
2018-01-05T18:10:34.583Z,99339.76
2018-01-05T18:13:00.550Z,99343.30
2018-01-05T18:15:26.360Z,99336.03
2018-01-05T18:17:52.330Z,99342.62
2018-01-05T18:20:18.131Z,99346.48
2018-01-05T18:22:44.549Z,99344.66
2018-01-05T18:25:10.347Z,99343.80
2018-01-05T18:27:36.127Z,99347.11
2018-01-05T18:30:02.188Z,99347.77
2018-01-05T18:32:27.974Z,99344.84
2018-01-05T18:34:54.432Z,99346.83
2018-01-05T18:37:20.223Z,99340.22
2018-01-05T18:39:47.034Z,99324.36
2018-01-05T18:42:12.846Z,99322.14
2018-01-05T18:44:39.288Z,99315.73
2018-01-05T18:47:07.740Z,99306.39
2018-01-05T18:49:34.481Z,99310.79
2018-01-05T18:52:00.293Z,99301.23
2018-01-05T18:54:26.096Z,99307.84
2018-01-05T18:56:52.123Z,99306.52
2018-01-05T18:59:17.906Z,99310.18
2018-01-05T19:01:43.867Z,99321.14
2018-01-05T19:04:09.692Z,99321.03
2018-01-05T19:06:35.486Z,99315.63
2018-01-05T19:11:33.925Z,99318.93
2018-01-05T19:13:59.719Z,99323.63
2018-01-05T19:16:25.506Z,99318.42
2018-01-05T19:18:51.294Z,99318.19
2018-01-05T19:21:17.084Z,99317.84
2018-01-05T19:23:43.074Z,99317.66
2018-01-05T19:26:08.854Z,99318.66
2018-01-05T19:28:35.050Z,99320.91
2018-01-05T19:31:00.906Z,99319.13
2018-01-05T19:33:26.756Z,99329.89
2018-01-05T19:35:52.552Z,99334.83
2018-01-05T19:38:18.661Z,99328.84
2018-01-05T19:40:44.534Z,99321.58
2018-01-05T19:43:10.865Z,99317.61
2018-01-05T19:45:37.008Z,99303.50
2018-01-05T19:48:03.090Z,99321.84
2018-01-05T19:50:29.070Z,99324.77
2018-01-05T19:52:54.910Z,99339.84
2018-01-05T19:55:21.137Z,99340.42
2018-01-05T19:57:47.919Z,99339.25
2018-01-05T20:00:14.050Z,99331.05
2018-01-05T20:02:39.859Z,99317.68
2018-01-05T20:05:06.058Z,99314.10
2018-01-05T20:07:31.883Z,99326.73
2018-01-05T20:09:57.667Z,99335.44
2018-01-05T20:12:23.744Z,99337.34
2018-01-05T20:14:50.504Z,99345.58
2018-01-05T20:17:16.336Z,99349.04
2018-01-05T20:19:42.258Z,99342.17
2018-01-05T20:22:08.295Z,99343.17
2018-01-05T20:24:34.107Z,99332.25
2018-01-05T20:27:00.494Z,99323.04
2018-01-05T20:29:27.153Z,99329.14
2018-01-05T20:31:53.334Z,99325.96
2018-01-05T20:34:19.205Z,99325.61
2018-01-05T20:36:45.733Z,99333.81
2018-01-05T20:39:12.278Z,99345.80
2018-01-05T20:41:38.728Z,99342.14
2018-01-05T20:44:06.570Z,99344.39
2018-01-05T20:46:32.436Z,99347.78
2018-01-05T20:48:58.517Z,99345.48
2018-01-05T20:51:24.310Z,99341.23
2018-01-05T20:53:50.110Z,99349.11
2018-01-05T20:56:15.893Z,99351.88
2018-01-05T20:58:41.696Z,99354.13
2018-01-05T21:01:07.526Z,99349.02
2018-01-05T21:03:33.359Z,99340.64
2018-01-05T21:05:59.147Z,99340.36
2018-01-05T21:08:24.927Z,99353.61
2018-01-05T21:10:51.487Z,99354.17
2018-01-05T21:13:17.267Z,99354.84
2018-01-05T21:15:43.251Z,99357.06
2018-01-05T21:18:09.055Z,99362.84
2018-01-05T21:20:35.058Z,99363.52
2018-01-05T21:23:00.848Z,99357.03
2018-01-05T21:25:26.656Z,99355.72
2018-01-05T21:27:52.438Z,99351.23
2018-01-05T21:30:18.766Z,99349.51
2018-01-05T21:32:44.569Z,99349.52
2018-01-05T21:35:10.387Z,99360.12
2018-01-05T21:37:36.166Z,99359.73
2018-01-05T21:40:02.255Z,99367.81
2018-01-05T21:42:28.078Z,99382.73
2018-01-05T21:44:53.864Z,99362.91
2018-01-05T21:47:20.742Z,99381.17
2018-01-05T21:49:46.718Z,99376.22
2018-01-05T21:52:12.496Z,99384.16
2018-01-05T21:54:38.681Z,99387.97
2018-01-05T21:57:04.523Z,99401.19
2018-01-05T21:59:30.526Z,99407.08
2018-01-05T22:01:56.344Z,99394.27
2018-01-05T22:04:23.139Z,99400.28
2018-01-05T22:06:48.978Z,99402.07
2018-01-05T22:09:16.948Z,99415.36
2018-01-05T22:11:43.193Z,99420.82
2018-01-05T22:14:09.107Z,99408.97
2018-01-05T22:16:34.891Z,99405.91
2018-01-05T22:19:00.682Z,99400.66
2018-01-05T22:21:26.494Z,99402.45
2018-01-05T22:23:52.512Z,99399.61
2018-01-05T22:26:18.619Z,99402.49
2018-01-05T22:28:44.423Z,99402.20
2018-01-05T22:31:13.460Z,99408.69
2018-01-05T22:33:39.353Z,99400.56
2018-01-05T22:36:05.176Z,99390.20
2018-01-05T22:38:30.962Z,99410.91
2018-01-05T22:40:56.998Z,99419.66
2018-01-05T22:43:22.927Z,99418.56
2018-01-05T22:45:48.777Z,99415.89
2018-01-05T22:48:14.551Z,99422.19
2018-01-05T22:50:40.340Z,99420.71
2018-01-05T22:53:06.339Z,99418.61
2018-01-05T22:55:32.236Z,99422.81
2018-01-05T22:57:58.310Z,99420.63
2018-01-05T23:00:24.142Z,99431.75
2018-01-05T23:02:50.025Z,99434.63
2018-01-05T23:05:15.866Z,99434.23
2018-01-05T23:07:41.828Z,99434.55
2018-01-05T23:10:07.598Z,99437.08
2018-01-05T23:12:33.382Z,99444.97
2018-01-05T23:14:59.206Z,99445.74
2018-01-05T23:17:25.046Z,99448.66
2018-01-05T23:19:50.874Z,99455.53
2018-01-05T23:22:16.698Z,99460.43
2018-01-05T23:24:42.720Z,99473.16
2018-01-05T23:27:08.604Z,99476.32
2018-01-05T23:29:34.377Z,99485.55
2018-01-05T23:32:00.194Z,99493.19
2018-01-05T23:34:25.980Z,99500.95
2018-01-05T23:36:52.651Z,99497.37
2018-01-05T23:39:18.782Z,99498.27
2018-01-05T23:41:44.575Z,99506.09
2018-01-05T23:44:10.847Z,99504.14
2018-01-05T23:46:36.646Z,99505.52
2018-01-05T23:49:02.589Z,99502.48
2018-01-05T23:51:28.459Z,99505.05
2018-01-05T23:53:54.348Z,99514.20
2018-01-05T23:56:20.173Z,99514.85
2018-01-05T23:58:46.978Z,99507.38
